Time;durP1;ratioP1;P1;durP2;ratioP2;P2;SDS_P1;SDS_P2;PMS_P1;PMS_P2;Temp;Humidity;BMP_temperature;BMP_pressure;BME280_temperature;BME280_humidity;BME280_pressure;Samples;Min_cycle;Max_cycle;Signal;HPM_P1;HPM_P2
2023/05/07 00:01:43;;;;;;;3.10;2.90;;;16.10;99.90;;;;;;6062707;23;20493;-67
2023/05/07 00:04:13;;;;;;;5.87;3.27;;;16.10;99.90;;;;;;6068218;23;20455;-67
2023/05/07 00:06:40;;;;;;;3.43;3.13;;;16.10;99.90;;;;;;6055087;23;20436;-67
2023/05/07 00:09:08;;;;;;;3.00;2.80;;;16.10;99.90;;;;;;6059690;23;20431;-66
2023/05/07 00:11:35;;;;;;;3.50;3.20;;;16.10;99.90;;;;;;6067946;23;20438;-66
2023/05/07 00:14:02;;;;;;;2.87;2.67;;;16.10;99.90;;;;;;6061431;23;20442;-66
2023/05/07 00:16:29;;;;;;;3.03;2.83;;;16.10;99.90;;;;;;6059092;23;20460;-67
2023/05/07 00:18:56;;;;;;;3.70;2.50;;;16.10;99.90;;;;;;6059377;23;20449;-67
2023/05/07 00:21:26;;;;;;;2.60;2.40;;;16.10;99.90;;;;;;6066192;23;20462;-66
2023/05/07 00:23:53;;;;;;;2.80;2.60;;;16.20;99.90;;;;;;6058621;23;20511;-66
2023/05/07 00:26:21;;;;;;;2.70;2.50;;;16.20;99.90;;;;;;6059125;23;20458;-66
2023/05/07 00:28:48;;;;;;;3.53;3.23;;;16.20;99.90;;;;;;6065788;23;20432;-67
2023/05/07 00:31:15;;;;;;;3.37;3.07;;;16.20;99.90;;;;;;6054016;23;20444;-66
2023/05/07 00:33:42;;;;;;;3.57;3.30;;;16.20;99.90;;;;;;6059105;23;20934;-66
2023/05/07 00:36:09;;;;;;;3.20;3.00;;;16.10;99.90;;;;;;6054079;23;20509;-66
2023/05/07 00:38:36;;;;;;;3.20;3.00;;;16.10;99.90;;;;;;6058806;23;20835;-66
2023/05/07 00:41:04;;;;;;;5.20;3.37;;;16.10;99.90;;;;;;6060332;23;20490;-66
2023/05/07 00:43:32;;;;;;;3.33;3.03;;;16.00;99.90;;;;;;6052254;23;20466;-67
2023/05/07 00:46:00;;;;;;;3.57;3.27;;;15.90;99.90;;;;;;6060228;23;20584;-67
2023/05/07 00:48:28;;;;;;;3.70;3.27;;;15.80;99.90;;;;;;6056438;23;20423;-66
2023/05/07 00:50:55;;;;;;;3.60;3.30;;;15.70;99.90;;;;;;6059894;23;20477;-67
2023/05/07 00:53:23;;;;;;;4.50;3.20;;;15.70;99.90;;;;;;6058152;23;20891;-66
2023/05/07 00:55:50;;;;;;;3.70;3.40;;;15.60;99.90;;;;;;6061275;23;21068;-66
2023/05/07 00:58:17;;;;;;;4.50;3.40;;;15.50;99.90;;;;;;6060900;23;20434;-66
2023/05/07 01:00:46;;;;;;;3.63;3.43;;;15.50;99.90;;;;;;6059853;23;20467;-66
2023/05/07 01:03:13;;;;;;;4.73;4.07;;;15.40;99.90;;;;;;6063564;23;20533;-66
2023/05/07 01:05:41;;;;;;;4.33;3.93;;;15.40;99.90;;;;;;6058933;23;20558;-66
2023/05/07 01:08:10;;;;;;;3.80;3.50;;;15.30;99.90;;;;;;6054217;23;20468;-66
2023/05/07 01:10:37;;;;;;;4.30;3.90;;;15.20;99.90;;;;;;6053776;23;20438;-66
2023/05/07 01:13:05;;;;;;;4.33;3.93;;;15.10;99.90;;;;;;6056808;23;20427;-67
2023/05/07 01:15:32;;;;;;;4.20;3.80;;;15.10;99.90;;;;;;6060409;23;21001;-67
2023/05/07 01:18:01;;;;;;;3.87;3.57;;;15.10;99.90;;;;;;6059749;23;20435;-66
2023/05/07 01:20:29;;;;;;;4.00;3.70;;;15.00;99.90;;;;;;6059598;23;20550;-66
2023/05/07 01:22:58;;;;;;;2.90;2.70;;;15.00;99.90;;;;;;6052272;23;20788;-67
2023/05/07 01:25:25;;;;;;;3.73;3.37;;;15.00;99.90;;;;;;6060419;23;20508;-66
2023/05/07 01:27:52;;;;;;;3.37;3.17;;;14.90;99.90;;;;;;6061038;23;20436;-67
2023/05/07 01:30:21;;;;;;;3.53;3.23;;;14.90;99.90;;;;;;6059175;23;20438;-66
2023/05/07 01:32:52;;;;;;;3.90;3.50;;;14.90;99.90;;;;;;6057873;23;20459;-66
2023/05/07 01:35:23;;;;;;;4.47;3.83;;;14.90;99.90;;;;;;6061322;23;20454;-66
2023/05/07 01:37:50;;;;;;;3.40;3.20;;;14.90;99.90;;;;;;6072260;23;20430;-66
2023/05/07 01:40:19;;;;;;;4.03;3.73;;;14.90;99.90;;;;;;6056916;23;20541;-66
2023/05/07 01:42:48;;;;;;;3.30;3.00;;;14.90;99.90;;;;;;6054483;23;20440;-66
2023/05/07 01:45:15;;;;;;;3.77;3.47;;;14.90;99.90;;;;;;6058084;23;20455;-66
2023/05/07 01:47:43;;;;;;;3.67;3.37;;;14.90;99.90;;;;;;6059821;23;20494;-66
2023/05/07 01:50:11;;;;;;;3.53;3.23;;;14.90;99.90;;;;;;6066158;23;20532;-66
2023/05/07 01:52:39;;;;;;;3.37;3.07;;;14.90;99.90;;;;;;6059365;23;20448;-66
2023/05/07 01:55:07;;;;;;;4.03;3.57;;;14.90;99.90;;;;;;6063807;23;20993;-66
2023/05/07 01:57:36;;;;;;;3.40;3.10;;;14.90;99.90;;;;;;6060945;23;20517;-65
2023/05/07 02:00:06;;;;;;;3.20;3.00;;;14.90;99.90;;;;;;6060646;23;20945;-65
2023/05/07 02:02:33;;;;;;;3.23;2.93;;;14.90;99.90;;;;;;6043117;23;20450;-65
2023/05/07 02:05:01;;;;;;;3.97;3.17;;;14.80;99.90;;;;;;6062239;23;20525;-65
2023/05/07 02:07:28;;;;;;;3.80;3.50;;;14.80;99.90;;;;;;6060835;23;20438;-65
2023/05/07 02:09:55;;;;;;;3.80;3.50;;;14.80;99.90;;;;;;6067770;23;20434;-65
2023/05/07 02:12:23;;;;;;;4.07;3.63;;;14.70;99.90;;;;;;6060633;23;20517;-66
2023/05/07 02:14:51;;;;;;;3.90;3.60;;;14.90;99.90;;;;;;6061039;23;20467;-65
2023/05/07 02:17:18;;;;;;;4.20;3.80;;;14.70;99.90;;;;;;6060480;23;20478;-65
2023/05/07 02:19:45;;;;;;;3.17;2.97;;;14.70;99.90;;;;;;6062380;23;20449;-66
2023/05/07 02:22:12;;;;;;;3.20;2.90;;;14.70;99.90;;;;;;6067612;23;20470;-66
2023/05/07 02:24:39;;;;;;;3.40;3.10;;;14.80;99.90;;;;;;6060979;23;20458;-66
2023/05/07 02:27:06;;;;;;;2.90;2.70;;;14.80;99.90;;;;;;6060783;23;20532;-65
2023/05/07 02:29:33;;;;;;;3.60;3.30;;;14.70;99.90;;;;;;6064062;23;20432;-65
2023/05/07 02:32:02;;;;;;;3.30;3.10;;;14.80;99.90;;;;;;6057829;23;20434;-65
2023/05/07 02:34:29;;;;;;;3.67;3.37;;;14.90;99.90;;;;;;6059984;23;21050;-65
2023/05/07 02:36:56;;;;;;;4.73;3.00;;;14.90;99.90;;;;;;6049207;23;20467;-65
2023/05/07 02:39:23;;;;;;;3.53;3.20;;;14.90;99.90;;;;;;6060767;23;20442;-66
2023/05/07 02:41:50;;;;;;;3.20;3.00;;;14.90;99.90;;;;;;6058295;23;20471;-66
2023/05/07 02:44:17;;;;;;;3.70;3.40;;;14.90;99.90;;;;;;6059377;23;20431;-66
2023/05/07 02:46:44;;;;;;;3.70;3.10;;;14.80;99.90;;;;;;6058127;23;20446;-67
2023/05/07 02:49:13;;;;;;;3.60;3.30;;;14.80;99.90;;;;;;6059552;23;20432;-67
2023/05/07 02:51:39;;;;;;;3.50;3.07;;;14.90;99.90;;;;;;6058845;23;20520;-66
2023/05/07 02:54:06;;;;;;;3.87;3.50;;;14.90;99.90;;;;;;6051529;23;20431;-66
2023/05/07 02:56:34;;;;;;;3.03;2.83;;;14.90;99.90;;;;;;6058970;23;20561;-67
2023/05/07 02:59:01;;;;;;;3.93;3.63;;;14.90;99.90;;;;;;6054692;23;20436;-66
2023/05/07 03:01:27;;;;;;;3.70;3.40;;;14.80;99.90;;;;;;6070536;23;20557;-66
2023/05/07 03:03:55;;;;;;;4.87;4.47;;;14.80;99.90;;;;;;6076686;22;20572;-78
2023/05/07 03:06:23;;;;;;;3.30;3.10;;;14.70;99.90;;;;;;6142574;23;20472;-77
2023/05/07 03:08:50;;;;;;;4.17;3.50;;;14.60;99.90;;;;;;6142754;23;20440;-78
2023/05/07 03:11:17;;;;;;;4.10;3.80;;;14.50;99.90;;;;;;6145369;23;20519;-78
2023/05/07 03:13:45;;;;;;;4.63;4.33;;;14.50;99.90;;;;;;6143521;23;20547;-78
2023/05/07 03:16:11;;;;;;;4.80;4.40;;;14.40;99.90;;;;;;6146297;23;20521;-78
2023/05/07 03:18:39;;;;;;;7.50;6.90;;;14.50;99.90;;;;;;6143667;23;20471;-78
2023/05/07 03:21:06;;;;;;;8.80;8.00;;;14.30;99.90;;;;;;6139362;23;20540;-78
2023/05/07 03:23:34;;;;;;;7.70;6.97;;;14.30;99.90;;;;;;6146549;23;20511;-78
2023/05/07 03:26:02;;;;;;;6.43;5.83;;;14.20;99.90;;;;;;6149729;23;20449;-78
2023/05/07 03:28:29;;;;;;;5.30;4.90;;;14.20;99.90;;;;;;6148507;23;20439;-78
2023/05/07 03:30:56;;;;;;;5.73;5.23;;;14.20;99.90;;;;;;6148221;23;20490;-78
2023/05/07 03:33:23;;;;;;;4.33;3.83;;;14.10;99.90;;;;;;6148730;23;21003;-78
2023/05/07 03:35:50;;;;;;;4.90;4.50;;;14.10;99.90;;;;;;6146552;23;21013;-78
2023/05/07 03:38:17;;;;;;;4.73;4.10;;;14.10;99.90;;;;;;6145603;23;20776;-78
2023/05/07 03:40:46;;;;;;;4.27;3.87;;;14.10;99.90;;;;;;6135351;23;20882;-77
2023/05/07 03:43:13;;;;;;;4.17;3.77;;;14.10;99.90;;;;;;6141110;23;20507;-78
2023/05/07 03:45:40;;;;;;;3.93;3.63;;;14.00;99.90;;;;;;6145879;23;20479;-79
2023/05/07 03:48:07;;;;;;;3.87;3.60;;;14.00;99.90;;;;;;6146247;23;20900;-78
2023/05/07 03:50:34;;;;;;;3.67;3.33;;;14.00;99.90;;;;;;6147600;23;20700;-73
2023/05/07 03:53:01;;;;;;;4.07;3.30;;;13.90;99.90;;;;;;6146069;23;20425;-76
2023/05/07 03:55:29;;;;;;;4.03;3.63;;;13.90;99.90;;;;;;6137261;23;20469;-76
2023/05/07 03:57:57;;;;;;;4.13;3.83;;;13.80;99.90;;;;;;6140707;23;20791;-77
2023/05/07 04:00:24;;;;;;;3.83;3.53;;;13.70;99.90;;;;;;6144133;23;20517;-77
2023/05/07 04:02:51;;;;;;;3.80;3.40;;;13.70;99.90;;;;;;6130122;23;20555;-77
2023/05/07 04:05:18;;;;;;;3.73;3.40;;;13.70;99.90;;;;;;6137902;23;20467;-77
2023/05/07 04:07:45;;;;;;;5.97;4.03;;;13.60;99.90;;;;;;6132621;23;20514;-77
2023/05/07 04:10:13;;;;;;;4.57;3.73;;;13.60;99.90;;;;;;6146842;23;20514;-78
2023/05/07 04:12:40;;;;;;;4.00;3.60;;;13.60;99.90;;;;;;6140748;23;20435;-78
2023/05/07 04:15:09;;;;;;;4.63;4.23;;;13.50;99.90;;;;;;6147529;23;20486;-77
2023/05/07 04:17:37;;;;;;;5.07;4.13;;;13.50;99.90;;;;;;6138409;23;20433;-79
2023/05/07 04:20:07;;;;;;;4.30;3.90;;;13.50;99.90;;;;;;6139755;23;20429;-78
2023/05/07 04:22:34;;;;;;;3.70;3.40;;;13.60;99.90;;;;;;6135949;23;20780;-78
2023/05/07 04:25:02;;;;;;;4.40;4.07;;;13.50;99.90;;;;;;6136963;23;20533;-78
2023/05/07 04:27:29;;;;;;;3.67;3.37;;;13.60;99.90;;;;;;6144931;23;20458;-78
2023/05/07 04:29:56;;;;;;;3.10;2.90;;;13.60;99.90;;;;;;6141465;23;20430;-78
2023/05/07 04:32:25;;;;;;;3.67;3.47;;;13.60;99.90;;;;;;6139960;23;20646;-79
2023/05/07 04:34:53;;;;;;;4.30;3.20;;;13.60;99.90;;;;;;6147722;23;20462;-79
2023/05/07 04:37:20;;;;;;;4.00;3.70;;;13.60;99.90;;;;;;6147611;23;20496;-78
2023/05/07 04:39:47;;;;;;;4.33;4.03;;;13.60;99.90;;;;;;6140354;23;20486;-78
2023/05/07 04:42:15;;;;;;;5.40;4.13;;;13.60;99.90;;;;;;6140333;23;20462;-78
2023/05/07 04:44:42;;;;;;;5.20;3.60;;;13.60;99.90;;;;;;6136176;23;21056;-79
2023/05/07 04:47:10;;;;;;;4.10;3.80;;;13.70;99.90;;;;;;6140967;23;20465;-78
2023/05/07 04:49:39;;;;;;;3.90;3.60;;;13.70;99.90;;;;;;6149187;23;20568;-79
2023/05/07 04:52:06;;;;;;;4.20;3.77;;;13.70;99.90;;;;;;6143055;23;20438;-79
2023/05/07 04:54:33;;;;;;;3.70;3.40;;;13.80;99.90;;;;;;6148704;23;21027;-79
2023/05/07 04:57:01;;;;;;;3.73;3.43;;;13.80;99.90;;;;;;6147568;23;20443;-79
2023/05/07 04:59:27;;;;;;;3.50;3.30;;;13.80;99.90;;;;;;6148891;23;20413;-79
2023/05/07 05:01:54;;;;;;;3.83;3.53;;;13.90;99.90;;;;;;6149138;23;20490;-79
2023/05/07 05:04:22;;;;;;;3.83;2.90;;;14.20;99.90;;;;;;6147874;23;20458;-79
2023/05/07 05:06:50;;;;;;;3.70;3.40;;;14.00;99.90;;;;;;6146438;23;21006;-79
2023/05/07 05:09:17;;;;;;;3.33;3.03;;;14.00;99.90;;;;;;6148651;23;20455;-78
2023/05/07 05:11:44;;;;;;;3.60;3.30;;;14.10;99.90;;;;;;6149678;23;20432;-79
2023/05/07 05:14:11;;;;;;;3.73;3.20;;;14.00;99.90;;;;;;6148748;23;20929;-79
2023/05/07 05:16:38;;;;;;;3.60;3.30;;;14.10;99.90;;;;;;6148899;23;20511;-79
2023/05/07 05:19:06;;;;;;;3.60;3.30;;;14.20;99.90;;;;;;6147258;23;20518;-79
2023/05/07 05:21:33;;;;;;;3.40;3.10;;;14.20;99.90;;;;;;6139398;23;20458;-77
2023/05/07 05:24:01;;;;;;;4.97;3.10;;;14.20;99.90;;;;;;6147599;23;20468;-77
2023/05/07 05:26:28;;;;;;;3.43;3.23;;;14.20;99.90;;;;;;6148471;23;20927;-77
2023/05/07 05:28:55;;;;;;;3.00;2.80;;;14.30;99.90;;;;;;6146571;23;20466;-77
2023/05/07 05:31:22;;;;;;;4.63;3.00;;;14.30;99.90;;;;;;6149740;23;20836;-77
2023/05/07 05:33:49;;;;;;;4.37;3.97;;;14.30;99.90;;;;;;6149278;23;20515;-77
2023/05/07 05:36:17;;;;;;;3.43;3.13;;;14.30;99.90;;;;;;6149031;23;20469;-77
2023/05/07 05:38:44;;;;;;;3.43;3.17;;;14.40;99.90;;;;;;6144135;23;20515;-78
2023/05/07 05:41:13;;;;;;;3.90;3.60;;;14.50;99.90;;;;;;6149834;23;20442;-77
2023/05/07 05:43:40;;;;;;;5.40;3.50;;;14.60;99.90;;;;;;6147751;23;20990;-77
2023/05/07 05:46:08;;;;;;;3.37;3.07;;;14.70;99.90;;;;;;6144780;23;20544;-77
2023/05/07 05:48:35;;;;;;;3.50;3.20;;;14.90;99.90;;;;;;6140702;23;20466;-75
2023/05/07 05:51:02;;;;;;;3.10;2.90;;;15.10;99.90;;;;;;6144700;23;20855;-76
2023/05/07 05:53:29;;;;;;;3.30;3.10;;;15.30;99.90;;;;;;6141498;23;20428;-75
2023/05/07 05:55:57;;;;;;;3.50;3.20;;;15.60;99.90;;;;;;6145005;23;20532;-75
2023/05/07 05:58:25;;;;;;;4.10;3.80;;;15.70;99.90;;;;;;6143889;23;20966;-75
2023/05/07 06:00:53;;;;;;;3.70;3.33;;;15.80;99.90;;;;;;6148681;23;20432;-75
2023/05/07 06:03:20;;;;;;;3.50;3.20;;;15.70;99.90;;;;;;6149826;23;20555;-75
2023/05/07 06:05:47;;;;;;;3.10;2.90;;;15.60;99.90;;;;;;6149633;23;21000;-76
2023/05/07 06:08:14;;;;;;;2.97;2.77;;;15.60;99.90;;;;;;6148157;23;20817;-76
2023/05/07 06:10:41;;;;;;;3.90;2.83;;;15.50;99.90;;;;;;6149390;23;20429;-76
2023/05/07 06:13:08;;;;;;;2.97;2.67;;;15.70;99.90;;;;;;6148800;23;20482;-79
2023/05/07 06:15:37;;;;;;;3.00;2.80;;;15.90;99.90;;;;;;6148846;23;20532;-78
2023/05/07 06:18:05;;;;;;;2.80;2.60;;;16.00;99.90;;;;;;6138712;23;21451;-75
2023/05/07 06:20:31;;;;;;;3.17;2.60;;;16.10;99.90;;;;;;6145657;23;20517;-93
2023/05/07 06:22:58;;;;;;;3.33;3.13;;;16.20;99.90;;;;;;6147895;23;20476;-85
2023/05/07 06:25:26;;;;;;;3.40;3.20;;;16.10;99.90;;;;;;6136885;23;21077;-82
2023/05/07 06:27:53;;;;;;;3.40;3.20;;;16.10;99.90;;;;;;6137565;23;20428;-81
2023/05/07 06:30:20;;;;;;;2.50;2.30;;;16.20;99.90;;;;;;6134518;23;20444;-81
2023/05/07 06:32:49;;;;;;;3.10;2.80;;;16.30;99.90;;;;;;6135455;23;20932;-81
2023/05/07 06:35:16;;;;;;;3.03;2.80;;;16.30;99.90;;;;;;6139060;23;20460;-85
2023/05/07 06:37:43;;;;;;;3.20;2.77;;;16.40;99.90;;;;;;6136238;23;20432;-86
2023/05/07 06:40:11;;;;;;;3.30;2.87;;;16.50;99.90;;;;;;6133873;23;20519;-86
2023/05/07 06:42:38;;;;;;;2.67;2.43;;;16.70;99.90;;;;;;6141873;23;20983;-85
2023/05/07 06:45:06;;;;;;;3.77;2.83;;;16.80;99.90;;;;;;6138827;23;20899;-87
2023/05/07 06:47:33;;;;;;;2.53;2.33;;;17.00;99.90;;;;;;6139914;23;20443;-85
2023/05/07 06:50:01;;;;;;;2.63;2.43;;;17.00;99.90;;;;;;6136416;23;20473;-84
2023/05/07 06:52:28;;;;;;;2.33;2.20;;;17.10;99.90;;;;;;6137034;23;20754;-87
2023/05/07 06:54:56;;;;;;;3.20;2.20;;;17.20;99.90;;;;;;6141367;23;20453;-88
2023/05/07 06:57:23;;;;;;;2.40;2.30;;;17.30;99.90;;;;;;6141421;23;20988;-87
2023/05/07 06:59:49;;;;;;;5.67;2.80;;;17.40;99.90;;;;;;6144852;23;20512;-87
2023/05/07 07:02:17;;;;;;;3.30;2.63;;;17.50;99.90;;;;;;6134963;23;20512;-82
2023/05/07 07:04:44;;;;;;;2.60;2.40;;;17.70;99.90;;;;;;6146707;23;20499;-82
2023/05/07 07:07:13;;;;;;;3.17;2.60;;;17.90;99.90;;;;;;6133839;23;20468;-82
2023/05/07 07:09:40;;;;;;;2.60;2.40;;;18.00;99.90;;;;;;6137923;23;20425;-87
2023/05/07 07:12:07;;;;;;;2.60;2.40;;;18.20;99.90;;;;;;6145834;23;20438;-87
2023/05/07 07:14:34;;;;;;;2.73;2.53;;;18.40;99.90;;;;;;6140877;23;20456;-88
2023/05/07 07:17:01;;;;;;;2.87;2.67;;;18.60;99.90;;;;;;6151617;23;20468;-89
2023/05/07 07:19:28;;;;;;;3.07;2.80;;;19.00;99.90;;;;;;6143792;23;20496;-88
2023/05/07 07:21:55;;;;;;;2.70;2.50;;;19.30;99.90;;;;;;6143712;23;20438;-81
2023/05/07 07:24:24;;;;;;;4.10;3.23;;;19.60;99.90;;;;;;6151406;23;20820;-90
2023/05/07 07:26:51;;;;;;;3.00;2.80;;;19.90;99.90;;;;;;6146297;23;20923;-74
2023/05/07 07:29:18;;;;;;;2.60;2.40;;;20.00;99.90;;;;;;6143915;23;20436;-81
2023/05/07 07:31:45;;;;;;;3.20;2.70;;;19.80;99.90;;;;;;6144084;23;20527;-78
2023/05/07 07:34:15;;;;;;;3.63;3.00;;;19.90;99.90;;;;;;6150506;23;20457;-75
2023/05/07 07:36:42;;;;;;;3.40;3.10;;;19.80;99.90;;;;;;6135037;23;20803;-75
2023/05/07 07:39:10;;;;;;;2.83;2.63;;;19.60;99.90;;;;;;6143474;23;20931;-75
2023/05/07 07:41:38;;;;;;;3.30;3.10;;;19.20;99.90;;;;;;6137875;23;20441;-87
2023/05/07 07:44:07;;;;;;;3.03;2.83;;;19.30;99.90;;;;;;6138222;23;20482;-76
2023/05/07 07:46:34;;;;;;;3.50;2.77;;;19.20;99.90;;;;;;6144444;23;20435;-75
2023/05/07 07:49:01;;;;;;;3.30;3.07;;;19.40;99.90;;;;;;6141592;23;20517;-75
2023/05/07 07:51:28;;;;;;;3.27;3.07;;;19.50;99.90;;;;;;6146326;23;20444;-75
2023/05/07 07:53:57;;;;;;;3.90;2.77;;;19.60;99.90;;;;;;6147628;23;20584;-75
2023/05/07 07:56:24;;;;;;;3.10;2.90;;;19.80;99.90;;;;;;6147494;23;20438;-75
2023/05/07 07:58:52;;;;;;;3.10;2.90;;;19.90;99.90;;;;;;6149133;23;20428;-74
2023/05/07 08:01:20;;;;;;;3.30;3.00;;;19.90;99.90;;;;;;6147977;23;20800;-75
2023/05/07 08:03:47;;;;;;;3.73;2.70;;;19.90;99.90;;;;;;6146043;23;20472;-76
2023/05/07 08:06:14;;;;;;;2.83;2.63;;;20.00;99.90;;;;;;6149700;23;20413;-76
2023/05/07 08:08:41;;;;;;;3.67;3.37;;;20.00;99.90;;;;;;6146638;23;21009;-75
2023/05/07 08:11:08;;;;;;;3.90;3.10;;;20.10;99.90;;;;;;6147746;23;20460;-75
2023/05/07 08:13:35;;;;;;;3.60;3.30;;;20.00;99.90;;;;;;6149125;23;20934;-75
2023/05/07 08:16:04;;;;;;;3.73;3.07;;;20.00;99.90;;;;;;6149278;23;20432;-75
2023/05/07 08:18:31;;;;;;;3.10;2.90;;;20.00;99.90;;;;;;6148420;23;20777;-75
2023/05/07 08:20:58;;;;;;;3.13;2.83;;;20.10;99.90;;;;;;6147897;23;20964;-75
2023/05/07 08:23:25;;;;;;;3.47;3.27;;;20.30;99.90;;;;;;6149443;23;20510;-75
2023/05/07 08:25:52;;;;;;;3.17;2.97;;;20.30;99.90;;;;;;6137077;23;20527;-75
2023/05/07 08:28:21;;;;;;;3.10;2.90;;;20.30;99.90;;;;;;6148164;23;20466;-75
2023/05/07 08:30:48;;;;;;;3.50;3.20;;;20.20;99.90;;;;;;6140778;23;20437;-75
2023/05/07 08:33:17;;;;;;;3.60;3.30;;;20.40;99.90;;;;;;6146693;23;20468;-75
2023/05/07 08:35:43;;;;;;;3.20;2.90;;;20.50;99.90;;;;;;6148314;23;20967;-75
2023/05/07 08:38:11;;;;;;;3.00;2.80;;;20.60;99.90;;;;;;6147204;23;21028;-75
2023/05/07 08:40:40;;;;;;;3.20;3.00;;;20.70;99.90;;;;;;6145476;23;20437;-76
2023/05/07 08:43:08;;;;;;;3.57;3.30;;;20.80;99.90;;;;;;6147318;23;20563;-75
2023/05/07 08:45:36;;;;;;;3.27;2.97;;;20.90;99.90;;;;;;6148476;23;20476;-75
2023/05/07 08:48:08;;;;;;;3.10;2.90;;;21.10;99.90;;;;;;6139672;23;21510;-75
2023/05/07 08:50:37;;;;;;;2.80;2.70;;;21.40;99.90;;;;;;6146486;23;20437;-76
2023/05/07 08:53:05;;;;;;;3.27;3.07;;;21.80;99.90;;;;;;6133615;23;20433;-75
2023/05/07 08:55:33;;;;;;;3.20;2.87;;;22.30;99.90;;;;;;6144524;23;20452;-76
2023/05/07 08:58:01;;;;;;;2.67;2.47;;;22.70;99.90;;;;;;6142256;23;20435;-76
2023/05/07 09:00:28;;;;;;;3.00;2.70;;;23.10;99.90;;;;;;6146679;23;20428;-77
2023/05/07 09:02:55;;;;;;;5.17;2.80;;;23.70;99.90;;;;;;6147195;23;20816;-76
2023/05/07 09:05:22;;;;;;;3.37;3.07;;;24.30;99.90;;;;;;6148350;23;20452;-76
2023/05/07 09:07:51;;;;;;;2.67;2.47;;;24.70;99.90;;;;;;6147389;23;20498;-76
2023/05/07 09:10:18;;;;;;;3.17;2.97;;;24.90;99.90;;;;;;6146799;23;20428;-76
2023/05/07 09:12:47;;;;;;;3.60;3.10;;;25.20;99.90;;;;;;6149170;23;20435;-76
2023/05/07 09:15:15;;;;;;;2.40;2.20;;;25.20;99.90;;;;;;6147228;23;20770;-75
2023/05/07 09:17:43;;;;;;;3.70;2.70;;;25.30;99.90;;;;;;6144133;23;20494;-74
2023/05/07 09:20:11;;;;;;;3.17;2.90;;;25.20;99.90;;;;;;6148100;23;20465;-74
2023/05/07 09:22:38;;;;;;;3.60;3.20;;;25.30;99.90;;;;;;6148356;23;20813;-74
2023/05/07 09:25:08;;;;;;;3.03;2.83;;;25.30;99.90;;;;;;6148993;23;20797;-75
2023/05/07 09:27:36;;;;;;;3.33;3.13;;;25.30;99.90;;;;;;6135463;23;20462;-74
2023/05/07 09:30:06;;;;;;;3.73;2.80;;;25.30;99.90;;;;;;6148869;23;20421;-75
2023/05/07 09:32:36;;;;;;;2.83;2.73;;;25.40;99.90;;;;;;6148205;23;20510;-75
2023/05/07 09:35:03;;;;;;;3.07;2.87;;;25.60;99.90;;;;;;6146456;23;20983;-75
2023/05/07 09:37:31;;;;;;;3.20;3.00;;;25.90;99.90;;;;;;6135403;23;20437;-75
2023/05/07 09:39:59;;;;;;;3.30;3.10;;;25.80;99.90;;;;;;6148242;23;21207;-75
2023/05/07 09:42:28;;;;;;;3.27;3.07;;;26.00;99.90;;;;;;6147790;23;20927;-75
2023/05/07 09:44:55;;;;;;;3.57;2.80;;;26.10;99.90;;;;;;6147272;23;20460;-75
2023/05/07 09:47:25;;;;;;;2.90;2.60;;;26.30;99.90;;;;;;6146695;23;20480;-75
2023/05/07 09:49:56;;;;;;;3.43;3.13;;;26.40;99.90;;;;;;6146389;23;20466;-75
2023/05/07 09:52:28;;;;;;;3.40;3.10;;;26.70;99.90;;;;;;6136270;23;20430;-75
2023/05/07 09:54:59;;;;;;;3.07;2.87;;;27.00;99.90;;;;;;6138973;23;20433;-75
2023/05/07 09:57:28;;;;;;;3.47;3.17;;;27.00;99.90;;;;;;6145591;23;20977;-75
2023/05/07 09:59:57;;;;;;;4.33;3.30;;;27.10;99.90;;;;;;6137797;23;20440;-75
2023/05/07 10:02:26;;;;;;;3.63;3.00;;;27.20;99.90;;;;;;6144410;23;20433;-75
2023/05/07 10:04:55;;;;;;;3.20;2.90;;;26.90;99.90;;;;;;6147144;23;20871;-76
2023/05/07 10:07:22;;;;;;;2.97;2.77;;;27.10;99.90;;;;;;6146888;23;20773;-76
2023/05/07 10:09:51;;;;;;;3.20;2.90;;;27.70;99.90;;;;;;6144329;23;20460;-76
2023/05/07 10:12:19;;;;;;;3.77;3.00;;;27.70;99.40;;;;;;6142562;23;20416;-76
2023/05/07 10:14:49;;;;;;;2.80;2.60;;;27.80;99.20;;;;;;6148130;23;20483;-76
2023/05/07 10:17:17;;;;;;;3.30;3.00;;;28.30;98.50;;;;;;6148812;23;20437;-76
2023/05/07 10:19:45;;;;;;;3.67;3.20;;;28.30;98.40;;;;;;6148262;23;20445;-76
2023/05/07 10:22:17;;;;;;;2.67;2.47;;;28.70;97.40;;;;;;6150502;23;20432;-76
2023/05/07 10:24:46;;;;;;;2.80;2.60;;;29.20;97.00;;;;;;6148046;23;20579;-76
2023/05/07 10:27:16;;;;;;;2.93;2.70;;;29.40;96.20;;;;;;6147502;23;20432;-76
2023/05/07 10:29:55;;;;;;;2.73;2.50;;;29.60;95.90;;;;;;6145866;23;20503;-76
2023/05/07 10:32:37;;;;;;;3.80;3.50;;;30.00;95.50;;;;;;6147795;23;20441;-76
2023/05/07 10:35:10;;;;;;;2.50;2.30;;;30.00;93.90;;;;;;6149256;23;20441;-76
2023/05/07 10:37:38;;;;;;;3.33;2.07;;;29.70;94.20;;;;;;6146555;23;20437;-76
2023/05/07 10:40:06;;;;;;;2.43;2.33;;;29.80;94.10;;;;;;6138414;23;21196;-76
2023/05/07 10:42:33;;;;;;;3.87;2.57;;;29.90;94.00;;;;;;6147496;23;20445;-76
2023/05/07 10:45:15;;;;;;;3.30;3.10;;;29.90;93.10;;;;;;6142471;23;20468;-76
2023/05/07 10:48:10;;;;;;;4.17;2.77;;;30.00;93.50;;;;;;6145138;23;20443;-76
2023/05/07 10:50:38;;;;;;;2.60;2.20;;;29.90;93.30;;;;;;6145052;23;20967;-76
2023/05/07 10:53:27;;;;;;;2.73;2.53;;;30.00;93.10;;;;;;6149799;23;20489;-76
2023/05/07 10:56:26;;;;;;;3.10;2.90;;;30.20;92.90;;;;;;6149079;23;20441;-76
2023/05/07 10:58:53;;;;;;;2.20;2.00;;;30.50;92.50;;;;;;6146259;23;20515;-76
2023/05/07 11:01:58;;;;;;;2.57;2.40;;;30.70;91.80;;;;;;6148152;23;20436;-77
2023/05/07 11:04:27;;;;;;;3.07;2.77;;;31.20;90.80;;;;;;6123174;23;20543;-76
2023/05/07 11:07:26;;;;;;;2.57;2.37;;;31.60;90.40;;;;;;6148652;23;20433;-76
2023/05/07 11:10:05;;;;;;;2.60;2.40;;;31.60;89.00;;;;;;6144505;23;20512;-76
2023/05/07 11:12:54;;;;;;;3.60;2.10;;;31.30;87.80;;;;;;6147703;23;20502;-76
2023/05/07 11:15:43;;;;;;;2.70;2.50;;;30.80;89.30;;;;;;6139937;23;21089;-76
2023/05/07 11:18:10;;;;;;;2.50;2.30;;;30.30;90.00;;;;;;6136339;23;20543;-76
2023/05/07 11:20:57;;;;;;;2.40;2.20;;;29.80;90.20;;;;;;6149999;23;20417;-76
2023/05/07 11:23:56;;;;;;;2.20;2.00;;;29.50;90.60;;;;;;6145719;23;20470;-76
2023/05/07 11:26:23;;;;;;;2.30;2.10;;;29.10;91.00;;;;;;6139764;23;20448;-76
2023/05/07 11:28:51;;;;;;;2.60;2.40;;;28.80;91.10;;;;;;6147928;23;20437;-76
2023/05/07 11:31:22;;;;;;;3.93;2.47;;;28.40;91.80;;;;;;6148621;23;20421;-76
2023/05/07 11:33:49;;;;;;;2.67;2.47;;;28.10;92.00;;;;;;6149309;23;20567;-76
2023/05/07 11:36:19;;;;;;;2.60;2.40;;;27.70;92.20;;;;;;6148916;23;20429;-76
2023/05/07 11:38:46;;;;;;;2.50;2.40;;;27.30;92.60;;;;;;6147942;23;20753;-76
2023/05/07 11:41:13;;;;;;;2.87;2.57;;;26.90;91.90;;;;;;6137207;23;20496;-76
2023/05/07 11:43:55;;;;;;;2.53;2.33;;;26.50;92.50;;;;;;6148879;23;20473;-76
2023/05/07 11:46:22;;;;;;;2.50;2.30;;;26.30;92.70;;;;;;6139949;23;20432;-76
2023/05/07 11:48:50;;;;;;;2.53;2.33;;;26.20;93.30;;;;;;6145649;23;20479;-76
2023/05/07 11:51:22;;;;;;;2.40;2.20;;;26.10;93.60;;;;;;6137570;23;20776;-76
2023/05/07 11:53:50;;;;;;;2.30;2.10;;;26.10;93.50;;;;;;6144173;23;20527;-76
2023/05/07 11:56:19;;;;;;;2.20;2.10;;;26.10;93.20;;;;;;6142104;23;20501;-76
2023/05/07 11:58:47;;;;;;;2.30;2.20;;;26.10;93.20;;;;;;6149260;23;20421;-76
2023/05/07 12:01:16;;;;;;;1.90;1.80;;;26.10;93.40;;;;;;6149606;23;20429;-76
2023/05/07 12:03:45;;;;;;;1.83;1.73;;;26.20;93.30;;;;;;6149038;23;20448;-76
2023/05/07 12:06:13;;;;;;;2.60;2.20;;;26.10;93.20;;;;;;6143616;23;20440;-76
2023/05/07 12:08:44;;;;;;;2.47;2.00;;;26.10;92.80;;;;;;6148176;23;20857;-76
2023/05/07 12:11:16;;;;;;;2.30;2.10;;;26.00;92.30;;;;;;6149114;23;20429;-76
2023/05/07 12:13:43;;;;;;;2.10;1.97;;;25.90;92.90;;;;;;6147536;23;21028;-76
2023/05/07 12:16:10;;;;;;;2.07;1.97;;;25.90;92.80;;;;;;6140833;23;20432;-76
2023/05/07 12:18:38;;;;;;;2.60;2.13;;;25.90;93.00;;;;;;6148038;23;20804;-76
2023/05/07 12:21:07;;;;;;;2.43;2.20;;;25.70;92.80;;;;;;6145100;23;20535;-76
2023/05/07 12:23:35;;;;;;;2.20;2.10;;;25.40;93.30;;;;;;6147551;23;20489;-76
2023/05/07 12:26:05;;;;;;;2.50;2.30;;;25.20;93.00;;;;;;6145420;23;20493;-76
2023/05/07 12:28:36;;;;;;;2.50;2.30;;;25.00;93.60;;;;;;6148223;23;20461;-76
2023/05/07 12:31:04;;;;;;;2.23;2.03;;;24.90;93.50;;;;;;6148967;23;20424;-76
2023/05/07 12:33:32;;;;;;;1.93;1.83;;;24.70;94.00;;;;;;6143916;23;20506;-76
2023/05/07 12:36:03;;;;;;;2.50;2.30;;;24.60;94.20;;;;;;6137534;23;20430;-75
2023/05/07 12:38:35;;;;;;;3.80;2.00;;;24.40;93.40;;;;;;6139405;23;20489;-76
2023/05/07 12:41:06;;;;;;;1.87;1.77;;;24.30;94.00;;;;;;6149622;23;20438;-76
2023/05/07 12:43:33;;;;;;;1.83;1.70;;;24.20;94.30;;;;;;6143400;23;20971;-76
2023/05/07 12:46:02;;;;;;;2.30;2.00;;;24.20;94.80;;;;;;6147994;23;20417;-76
2023/05/07 12:48:29;;;;;;;1.90;1.80;;;24.20;95.20;;;;;;6149046;23;20431;-76
2023/05/07 12:50:58;;;;;;;2.30;1.97;;;24.10;95.00;;;;;;6143894;23;20822;-76
2023/05/07 12:53:26;;;;;;;2.90;2.10;;;24.00;95.40;;;;;;6142994;23;20452;-76
2023/05/07 12:55:55;;;;;;;2.30;2.10;;;23.80;95.80;;;;;;6139634;23;20906;-76